Maersk Windhoek — 3FWJ3 — position and weather

sailwx.info

Track history (hours):
 
Tides and Currents Weather Stations Pressure Air Temp Water Temp Dewpoint Dewpoint Depression Visibility Wind Speed Wind Dir Waves Ship Positions

Maersk Windhoek

Last reported at 2014-Jul-19 06:06 UTC. Time now 2014-Jul-25 03:40 UTC.
Position N 36°44' E 005°09'.

Length 172 m; draft 9.4 m.

Type: Ship (hazmat cat C). MMSI: 370431000.

Date/timePositionNaut miles runAvg speedWind from/ knotsBaromVisibWave heightAir tempDewpointWater temp
2014-Jul-19 06:06N 36°44' E 005°09'0 0.0
2014-Jul-18 21:29N 36°44' E 005°09'0 0.0
2014-Jul-18 12:23N 36°44' E 005°09'0 0.0
2014-Jul-18 08:26N 36°44' E 005°09'0 0.0
2014-Jul-18 07:29N 36°44' E 005°09'0 0.1
2014-Jul-18 06:32N 36°44' E 005°09'0 0.0
2014-Jul-18 05:29N 36°44' E 005°09'0 0.1
2014-Jul-18 04:29N 36°44' E 005°09'0 0.0
2014-Jul-18 03:32N 36°44' E 005°09'0 0.0
2014-Jul-18 02:08N 36°43' E 005°09'0 0.0
2014-Jul-17 23:29N 36°43' E 005°09'0 0.1
2014-Jul-17 21:08N 36°43' E 005°09'0 0.0
2014-Jul-17 20:29N 36°43' E 005°09'0 0.0
2014-Jul-17 14:26N 36°43' E 005°09'0 0.0
2014-Jul-17 13:29N 36°43' E 005°09'0 0.0
2014-Jul-17 06:32N 36°43' E 005°09'0 0.0
2014-Jul-16 03:29N 36°43' E 005°09'0 0.0
2014-Jul-15 22:17N 36°43' E 005°09'0 0.0
2014-Jul-14 10:11N 36°43' E 005°09'0 0.1
2014-Jul-14 08:29N 36°43' E 005°09'0 0.0
2014-Jul-14 06:11N 36°44' E 005°09'0 0.0
2014-Jul-13 18:11N 36°43' E 005°09'198 6.9
2014-Jul-12 13:29N 39°49' E 003°43'3116.2
2014-Jul-12 11:33N 40°13' E 003°17'1616.2
2014-Jul-12 10:33N 40°26' E 003°04'1615.6
2014-Jul-12 09:33N 40°38' E 002°51'1615.7
2014-Jul-12 08:33N 40°51' E 002°38'1615.9
2014-Jul-12 07:33N 41°03' E 002°25'1615.7
2014-Jul-12 06:32N 41°16' E 002°12'3 3.2
2014-Jul-12 05:26N 41°19' E 002°09'0 0.0
2014-Jul-12 04:32N 41°19' E 002°09'0 0.0
2014-Jul-12 01:26N 41°19' E 002°09'0 0.0
2014-Jul-11 23:32N 41°19' E 002°09'5 5.4
2014-Jul-11 22:33N 41°14' E 002°12'1 1.1
2014-Jul-11 21:30N 41°13' E 002°12'0 0.3
2014-Jul-11 20:06N 41°12' E 002°12'0 0.2
2014-Jul-11 19:18N 41°12' E 002°12'0 0.3
2014-Jul-11 18:06N 41°12' E 002°12'0 0.3
2014-Jul-11 17:24N 41°12' E 002°12'0 0.4
2014-Jul-11 16:30N 41°11' E 002°12'1 0.5
2014-Jul-11 15:24N 41°11' E 002°12'1 0.6
2014-Jul-11 14:30N 41°10' E 002°12'1 0.7
2014-Jul-11 13:27N 41°09' E 002°12'1 0.6
2014-Jul-11 12:24N 41°09' E 002°12'2 2.4
2014-Jul-11 11:33N 41°07' E 002°10'1515.0
2014-Jul-11 10:33N 40°57' E 001°56'1615.7
2014-Jul-11 09:33N 40°44' E 001°44'1515.1
2014-Jul-11 08:33N 40°32' E 001°33'1514.8
2014-Jul-11 07:33N 40°19' E 001°22'1616.2
2014-Jul-11 06:33N 40°06' E 001°10'1716.5
2014-Jul-11 05:33N 39°52' E 000°59'6315.5
2014-Jul-11 01:32N 39°26' W 000°15'3 3.0
2014-Jul-11 00:30N 39°26' W 000°19'0 0.0
2014-Jul-10 23:33N 39°26' W 000°19'0 0.0
2014-Jul-10 22:27N 39°26' W 000°19'0 0.0
2014-Jul-10 21:30N 39°26' W 000°19'0 0.0
2014-Jul-10 20:30N 39°26' W 000°19'0 0.0
2014-Jul-10 19:24N 39°26' W 000°19'0 0.0
2014-Jul-10 18:33N 39°26' W 000°19'0 0.0
2014-Jul-10 17:33N 39°26' W 000°19'0 0.0
2014-Jul-10 16:33N 39°26' W 000°19'0 0.0
2014-Jul-10 15:33N 39°26' W 000°19'0 0.0
2014-Jul-10 14:27N 39°26' W 000°19'0 0.0
2014-Jul-10 13:33N 39°26' W 000°19'0 0.0
2014-Jul-10 12:33N 39°26' W 000°19'0 0.0
2014-Jul-10 11:33N 39°26' W 000°19'0 0.0
2014-Jul-10 10:33N 39°26' W 000°19'0 0.0
2014-Jul-10 09:33N 39°26' W 000°19'3 2.6
2014-Jul-10 08:33N 39°25' W 000°17'2 1.7
2014-Jul-10 07:31N 39°23' W 000°16'0 0.0
2014-Jul-10 06:10N 39°23' W 000°16'0 0.0
2014-Jul-10 05:31N 39°23' W 000°16'0 0.0
2014-Jul-10 04:31N 39°23' W 000°16'0 0.0
2014-Jul-10 03:31N 39°23' W 000°16'0 0.0
2014-Jul-10 02:28N 39°23' W 000°16'0 0.0
2014-Jul-10 01:28N 39°23' W 000°16'0 0.2
2014-Jul-10 00:31N 39°23' W 000°17'0 0.0
2014-Jul-09 23:28N 39°23' W 000°17'0 0.0
2014-Jul-09 22:31N 39°23' W 000°17'0 0.0
2014-Jul-09 21:31N 39°23' W 000°17'0 0.0
2014-Jul-09 20:28N 39°23' W 000°17'0 0.0
2014-Jul-09 19:31N 39°23' W 000°17'0 0.0
2014-Jul-09 18:16N 39°23' W 000°17'0 0.0
2014-Jul-09 08:13N 39°23' W 000°17'0 0.1
2014-Jul-09 07:33N 39°23' W 000°16'3 3.3
2014-Jul-09 06:32N 39°26' W 000°19'  
Track history (hours):
 
Tides and Currents Weather Stations Pressure Air Temp Water Temp Dewpoint Dewpoint Depression Visibility Wind Speed Wind Dir Waves Ship Positions

Maersk Windhoek

Last reported at 2014-Jul-19 06:06 UTC. Time now 2014-Jul-25 03:40 UTC.
Position N 36°44' E 005°09'.

Length 172 m; draft 9.4 m.

Type: Ship (hazmat cat C). MMSI: 370431000.

Date/timePositionNaut miles runAvg speedWind from/ knotsBaromVisibWave heightAir tempDewpointWater temp
2014-Jul-19 06:06N 36°44' E 005°09'0 0.0
2014-Jul-18 21:29N 36°44' E 005°09'0 0.0
2014-Jul-18 12:23N 36°44' E 005°09'0 0.0
2014-Jul-18 08:26N 36°44' E 005°09'0 0.0
2014-Jul-18 07:29N 36°44' E 005°09'0 0.1
2014-Jul-18 06:32N 36°44' E 005°09'0 0.0
2014-Jul-18 05:29N 36°44' E 005°09'0 0.1
2014-Jul-18 04:29N 36°44' E 005°09'0 0.0
2014-Jul-18 03:32N 36°44' E 005°09'0 0.0
2014-Jul-18 02:08N 36°43' E 005°09'0 0.0
2014-Jul-17 23:29N 36°43' E 005°09'0 0.1
2014-Jul-17 21:08N 36°43' E 005°09'0 0.0
2014-Jul-17 20:29N 36°43' E 005°09'0 0.0
2014-Jul-17 14:26N 36°43' E 005°09'0 0.0
2014-Jul-17 13:29N 36°43' E 005°09'0 0.0
2014-Jul-17 06:32N 36°43' E 005°09'0 0.0
2014-Jul-16 03:29N 36°43' E 005°09'0 0.0
2014-Jul-15 22:17N 36°43' E 005°09'0 0.0
2014-Jul-14 10:11N 36°43' E 005°09'0 0.1
2014-Jul-14 08:29N 36°43' E 005°09'0 0.0
2014-Jul-14 06:11N 36°44' E 005°09'0 0.0
2014-Jul-13 18:11N 36°43' E 005°09'198 6.9
2014-Jul-12 13:29N 39°49' E 003°43'3116.2
2014-Jul-12 11:33N 40°13' E 003°17'1616.2
2014-Jul-12 10:33N 40°26' E 003°04'1615.6
2014-Jul-12 09:33N 40°38' E 002°51'1615.7
2014-Jul-12 08:33N 40°51' E 002°38'1615.9
2014-Jul-12 07:33N 41°03' E 002°25'1615.7
2014-Jul-12 06:32N 41°16' E 002°12'3 3.2
2014-Jul-12 05:26N 41°19' E 002°09'0 0.0
2014-Jul-12 04:32N 41°19' E 002°09'0 0.0
2014-Jul-12 01:26N 41°19' E 002°09'0 0.0
2014-Jul-11 23:32N 41°19' E 002°09'5 5.4
2014-Jul-11 22:33N 41°14' E 002°12'1 1.1
2014-Jul-11 21:30N 41°13' E 002°12'0 0.3
2014-Jul-11 20:06N 41°12' E 002°12'0 0.2
2014-Jul-11 19:18N 41°12' E 002°12'0 0.3
2014-Jul-11 18:06N 41°12' E 002°12'0 0.3
2014-Jul-11 17:24N 41°12' E 002°12'0 0.4
2014-Jul-11 16:30N 41°11' E 002°12'1 0.5
2014-Jul-11 15:24N 41°11' E 002°12'1 0.6
2014-Jul-11 14:30N 41°10' E 002°12'1 0.7
2014-Jul-11 13:27N 41°09' E 002°12'1 0.6
2014-Jul-11 12:24N 41°09' E 002°12'2 2.4
2014-Jul-11 11:33N 41°07' E 002°10'1515.0
2014-Jul-11 10:33N 40°57' E 001°56'1615.7
2014-Jul-11 09:33N 40°44' E 001°44'1515.1
2014-Jul-11 08:33N 40°32' E 001°33'1514.8
2014-Jul-11 07:33N 40°19' E 001°22'1616.2
2014-Jul-11 06:33N 40°06' E 001°10'1716.5
2014-Jul-11 05:33N 39°52' E 000°59'6315.5
2014-Jul-11 01:32N 39°26' W 000°15'3 3.0
2014-Jul-11 00:30N 39°26' W 000°19'0 0.0
2014-Jul-10 23:33N 39°26' W 000°19'0 0.0
2014-Jul-10 22:27N 39°26' W 000°19'0 0.0
2014-Jul-10 21:30N 39°26' W 000°19'0 0.0
2014-Jul-10 20:30N 39°26' W 000°19'0 0.0
2014-Jul-10 19:24N 39°26' W 000°19'0 0.0
2014-Jul-10 18:33N 39°26' W 000°19'0 0.0
2014-Jul-10 17:33N 39°26' W 000°19'0 0.0
2014-Jul-10 16:33N 39°26' W 000°19'0 0.0
2014-Jul-10 15:33N 39°26' W 000°19'0 0.0
2014-Jul-10 14:27N 39°26' W 000°19'0 0.0
2014-Jul-10 13:33N 39°26' W 000°19'0 0.0
2014-Jul-10 12:33N 39°26' W 000°19'0 0.0
2014-Jul-10 11:33N 39°26' W 000°19'0 0.0
2014-Jul-10 10:33N 39°26' W 000°19'0 0.0
2014-Jul-10 09:33N 39°26' W 000°19'3 2.6
2014-Jul-10 08:33N 39°25' W 000°17'2 1.7
2014-Jul-10 07:31N 39°23' W 000°16'0 0.0
2014-Jul-10 06:10N 39°23' W 000°16'0 0.0
2014-Jul-10 05:31N 39°23' W 000°16'0 0.0
2014-Jul-10 04:31N 39°23' W 000°16'0 0.0
2014-Jul-10 03:31N 39°23' W 000°16'0 0.0
2014-Jul-10 02:28N 39°23' W 000°16'0 0.0
2014-Jul-10 01:28N 39°23' W 000°16'0 0.2
2014-Jul-10 00:31N 39°23' W 000°17'0 0.0
2014-Jul-09 23:28N 39°23' W 000°17'0 0.0
2014-Jul-09 22:31N 39°23' W 000°17'0 0.0
2014-Jul-09 21:31N 39°23' W 000°17'0 0.0
2014-Jul-09 20:28N 39°23' W 000°17'0 0.0
2014-Jul-09 19:31N 39°23' W 000°17'0 0.0
2014-Jul-09 18:16N 39°23' W 000°17'0 0.0
2014-Jul-09 08:13N 39°23' W 000°17'0 0.1
2014-Jul-09 07:33N 39°23' W 000°16'3 3.3
2014-Jul-09 06:32N 39°26' W 000°19'  

Dump ship's entire track history